sensor_id;sensor_type;location;lat;lon;timestamp;temperature;humidity
6863;DHT22;3470;48.738;9.616;2023-05-29T15:13:17;32.00;43.20
6863;DHT22;3470;48.738;9.616;2023-05-29T15:15:43;32.40;44.10
6863;DHT22;3470;48.738;9.616;2023-05-29T15:18:09;32.10;41.90
6863;DHT22;3470;48.738;9.616;2023-05-29T15:20:34;31.50;42.20
6863;DHT22;3470;48.738;9.616;2023-05-29T15:23:00;31.40;42.70
6863;DHT22;3470;48.738;9.616;2023-05-29T15:25:25;31.30;43.30
6863;DHT22;3470;48.738;9.616;2023-05-29T15:27:51;31.70;42.80
6863;DHT22;3470;48.738;9.616;2023-05-29T15:30:18;32.00;43.40
6863;DHT22;3470;48.738;9.616;2023-05-29T15:32:44;32.30;42.30
6863;DHT22;3470;48.738;9.616;2023-05-29T15:35:13;32.40;42.90
6863;DHT22;3470;48.738;9.616;2023-05-29T15:37:39;32.60;43.20
6863;DHT22;3470;48.738;9.616;2023-05-29T15:40:06;32.20;42.90
6863;DHT22;3470;48.738;9.616;2023-05-29T15:42:32;31.80;44.10
6863;DHT22;3470;48.738;9.616;2023-05-29T15:45:01;31.90;44.70
6863;DHT22;3470;48.738;9.616;2023-05-29T15:47:28;31.90;42.70
6863;DHT22;3470;48.738;9.616;2023-05-29T15:49:54;31.90;43.50
6863;DHT22;3470;48.738;9.616;2023-05-29T16:55:21;24.40;53.40
6863;DHT22;3470;48.738;9.616;2023-05-29T16:57:49;24.10;54.50
6863;DHT22;3470;48.738;9.616;2023-05-29T18:05:52;22.20;59.00
6863;DHT22;3470;48.738;9.616;2023-05-29T18:08:19;22.00;59.50
6863;DHT22;3470;48.738;9.616;2023-05-29T18:10:44;21.90;60.50
6863;DHT22;3470;48.738;9.616;2023-05-29T18:13:10;21.80;60.30
6863;DHT22;3470;48.738;9.616;2023-05-29T18:15:36;21.70;60.30
6863;DHT22;3470;48.738;9.616;2023-05-29T18:18:01;21.60;60.30
6863;DHT22;3470;48.738;9.616;2023-05-29T18:20:27;21.50;60.30
6863;DHT22;3470;48.738;9.616;2023-05-29T18:22:55;21.40;60.60
6863;DHT22;3470;48.738;9.616;2023-05-29T18:25:23;21.30;62.10
6863;DHT22;3470;48.738;9.616;2023-05-29T18:27:49;21.20;63.00
6863;DHT22;3470;48.738;9.616;2023-05-29T18:30:15;21.00;62.60
6863;DHT22;3470;48.738;9.616;2023-05-29T18:32:41;20.80;62.90
6863;DHT22;3470;48.738;9.616;2023-05-29T18:35:10;20.80;62.50
6863;DHT22;3470;48.738;9.616;2023-05-29T18:37:38;20.60;63.90
6863;DHT22;3470;48.738;9.616;2023-05-29T18:40:05;20.50;64.30
6863;DHT22;3470;48.738;9.616;2023-05-29T18:42:31;20.40;63.10
6863;DHT22;3470;48.738;9.616;2023-05-29T18:44:56;20.30;63.40
6863;DHT22;3470;48.738;9.616;2023-05-29T18:47:22;20.20;64.40
6863;DHT22;3470;48.738;9.616;2023-05-29T18:49:47;20.00;65.30
6863;DHT22;3470;48.738;9.616;2023-05-29T18:52:13;19.90;65.20
6863;DHT22;3470;48.738;9.616;2023-05-29T18:54:39;19.70;65.60
6863;DHT22;3470;48.738;9.616;2023-05-29T18:57:05;19.60;66.30
6863;DHT22;3470;48.738;9.616;2023-05-29T18:59:33;19.50;66.30
6863;DHT22;3470;48.738;9.616;2023-05-29T19:01:58;19.40;66.70
6863;DHT22;3470;48.738;9.616;2023-05-29T19:04:24;19.20;67.00
6863;DHT22;3470;48.738;9.616;2023-05-29T19:06:50;19.10;67.60
6863;DHT22;3470;48.738;9.616;2023-05-29T19:09:20;18.90;68.00
6863;DHT22;3470;48.738;9.616;2023-05-29T19:11:46;18.90;67.90
6863;DHT22;3470;48.738;9.616;2023-05-29T19:14:12;18.80;68.00
6863;DHT22;3470;48.738;9.616;2023-05-29T19:16:38;18.70;67.90
6863;DHT22;3470;48.738;9.616;2023-05-29T19:19:06;18.70;67.40
6863;DHT22;3470;48.738;9.616;2023-05-29T19:21:32;18.70;67.90
6863;DHT22;3470;48.738;9.616;2023-05-29T19:23:58;18.70;67.20
6863;DHT22;3470;48.738;9.616;2023-05-29T19:26:26;18.70;67.40
6863;DHT22;3470;48.738;9.616;2023-05-29T19:28:54;18.60;67.90
6863;DHT22;3470;48.738;9.616;2023-05-29T19:31:19;18.50;68.00
6863;DHT22;3470;48.738;9.616;2023-05-29T19:33:54;18.40;68.30
6863;DHT22;3470;48.738;9.616;2023-05-29T19:36:20;18.30;68.40
6863;DHT22;3470;48.738;9.616;2023-05-29T19:38:46;18.20;68.70
6863;DHT22;3470;48.738;9.616;2023-05-29T19:41:18;18.20;68.70
6863;DHT22;3470;48.738;9.616;2023-05-29T19:43:44;18.10;69.40
6863;DHT22;3470;48.738;9.616;2023-05-29T19:46:09;18.10;69.50
6863;DHT22;3470;48.738;9.616;2023-05-29T19:48:35;18.00;70.00
6863;DHT22;3470;48.738;9.616;2023-05-29T19:51:02;17.90;70.10
6863;DHT22;3470;48.738;9.616;2023-05-29T19:53:28;17.80;70.30
6863;DHT22;3470;48.738;9.616;2023-05-29T19:55:55;17.90;70.70
6863;DHT22;3470;48.738;9.616;2023-05-29T19:58:22;17.80;71.20
6863;DHT22;3470;48.738;9.616;2023-05-29T20:00:48;17.90;71.00
6863;DHT22;3470;48.738;9.616;2023-05-29T20:03:14;17.90;70.90
6863;DHT22;3470;48.738;9.616;2023-05-29T20:05:41;17.80;71.20
6863;DHT22;3470;48.738;9.616;2023-05-29T20:08:09;17.80;71.80
6863;DHT22;3470;48.738;9.616;2023-05-29T20:10:34;17.80;71.50
6863;DHT22;3470;48.738;9.616;2023-05-29T20:13:00;17.70;71.80
6863;DHT22;3470;48.738;9.616;2023-05-29T20:15:26;17.70;72.10
6863;DHT22;3470;48.738;9.616;2023-05-29T20:17:55;17.60;72.20
6863;DHT22;3470;48.738;9.616;2023-05-29T20:20:20;17.60;72.30
6863;DHT22;3470;48.738;9.616;2023-05-29T20:22:46;17.60;72.80
6863;DHT22;3470;48.738;9.616;2023-05-29T20:25:14;17.60;72.50
6863;DHT22;3470;48.738;9.616;2023-05-29T20:27:44;17.60;72.70
6863;DHT22;3470;48.738;9.616;2023-05-29T20:30:11;17.60;72.80
6863;DHT22;3470;48.738;9.616;2023-05-29T20:32:37;17.60;72.90
6863;DHT22;3470;48.738;9.616;2023-05-29T20:35:04;17.60;72.90
6863;DHT22;3470;48.738;9.616;2023-05-29T20:37:30;17.70;73.20
6863;DHT22;3470;48.738;9.616;2023-05-29T20:39:58;17.50;73.30
6863;DHT22;3470;48.738;9.616;2023-05-29T20:42:25;17.60;73.50
6863;DHT22;3470;48.738;9.616;2023-05-29T20:44:51;17.50;73.70
6863;DHT22;3470;48.738;9.616;2023-05-29T20:47:17;17.50;74.40
6863;DHT22;3470;48.738;9.616;2023-05-29T20:49:43;17.50;74.20
6863;DHT22;3470;48.738;9.616;2023-05-29T20:52:09;17.50;74.10
6863;DHT22;3470;48.738;9.616;2023-05-29T20:54:34;17.40;74.00
6863;DHT22;3470;48.738;9.616;2023-05-29T20:57:00;17.40;74.40
6863;DHT22;3470;48.738;9.616;2023-05-29T20:59:26;17.30;74.50
6863;DHT22;3470;48.738;9.616;2023-05-29T21:01:52;17.30;74.70
6863;DHT22;3470;48.738;9.616;2023-05-29T21:04:19;17.20;74.80
6863;DHT22;3470;48.738;9.616;2023-05-29T21:06:48;17.20;74.80
6863;DHT22;3470;48.738;9.616;2023-05-29T21:09:14;17.20;75.10
6863;DHT22;3470;48.738;9.616;2023-05-29T21:11:39;17.20;75.00
6863;DHT22;3470;48.738;9.616;2023-05-29T21:14:05;17.10;76.00
6863;DHT22;3470;48.738;9.616;2023-05-29T21:16:31;17.10;75.70
6863;DHT22;3470;48.738;9.616;2023-05-29T21:18:57;17.10;75.50
6863;DHT22;3470;48.738;9.616;2023-05-29T21:21:22;17.00;75.50
6863;DHT22;3470;48.738;9.616;2023-05-29T21:23:51;17.00;76.00
6863;DHT22;3470;48.738;9.616;2023-05-29T21:26:18;16.90;76.10
6863;DHT22;3470;48.738;9.616;2023-05-29T21:28:45;16.90;76.20
6863;DHT22;3470;48.738;9.616;2023-05-29T21:31:11;16.80;76.40
6863;DHT22;3470;48.738;9.616;2023-05-29T21:33:39;16.70;76.40
6863;DHT22;3470;48.738;9.616;2023-05-29T21:36:05;16.70;76.80
6863;DHT22;3470;48.738;9.616;2023-05-29T21:38:31;16.60;76.80
6863;DHT22;3470;48.738;9.616;2023-05-29T21:40:56;16.60;77.10
6863;DHT22;3470;48.738;9.616;2023-05-29T21:43:22;16.50;77.20
6863;DHT22;3470;48.738;9.616;2023-05-29T21:45:48;16.50;76.90
6863;DHT22;3470;48.738;9.616;2023-05-29T21:48:13;16.60;77.00
6863;DHT22;3470;48.738;9.616;2023-05-29T21:50:39;16.50;76.80
6863;DHT22;3470;48.738;9.616;2023-05-29T21:53:05;16.50;77.20
6863;DHT22;3470;48.738;9.616;2023-05-29T21:55:30;16.50;77.30
6863;DHT22;3470;48.738;9.616;2023-05-29T21:57:56;16.50;77.10
6863;DHT22;3470;48.738;9.616;2023-05-29T22:00:24;16.50;76.90
6863;DHT22;3470;48.738;9.616;2023-05-29T22:02:54;16.50;77.10
6863;DHT22;3470;48.738;9.616;2023-05-29T22:05:20;16.40;77.30
6863;DHT22;3470;48.738;9.616;2023-05-29T22:07:46;16.40;77.60
6863;DHT22;3470;48.738;9.616;2023-05-29T22:10:11;16.30;77.70
6863;DHT22;3470;48.738;9.616;2023-05-29T22:12:39;16.30;77.80
6863;DHT22;3470;48.738;9.616;2023-05-29T22:15:05;16.20;78.10
6863;DHT22;3470;48.738;9.616;2023-05-29T22:17:32;16.20;78.20
6863;DHT22;3470;48.738;9.616;2023-05-29T22:20:00;16.20;78.50
6863;DHT22;3470;48.738;9.616;2023-05-29T22:22:31;16.20;78.40
6863;DHT22;3470;48.738;9.616;2023-05-29T22:24:58;16.10;78.70
6863;DHT22;3470;48.738;9.616;2023-05-29T22:27:27;16.00;78.80
6863;DHT22;3470;48.738;9.616;2023-05-29T22:29:53;16.00;79.20
6863;DHT22;3470;48.738;9.616;2023-05-29T22:32:18;15.90;79.30
6863;DHT22;3470;48.738;9.616;2023-05-29T22:34:44;15.80;79.60
6863;DHT22;3470;48.738;9.616;2023-05-29T22:37:09;15.80;79.70
6863;DHT22;3470;48.738;9.616;2023-05-29T22:39:35;15.70;80.10
6863;DHT22;3470;48.738;9.616;2023-05-29T22:42:01;15.60;80.20
6863;DHT22;3470;48.738;9.616;2023-05-29T22:44:27;15.60;80.40
6863;DHT22;3470;48.738;9.616;2023-05-29T22:46:53;15.50;80.30
6863;DHT22;3470;48.738;9.616;2023-05-29T22:49:18;15.60;80.50
6863;DHT22;3470;48.738;9.616;2023-05-29T22:51:44;15.60;80.80
6863;DHT22;3470;48.738;9.616;2023-05-29T22:54:10;15.50;81.00
6863;DHT22;3470;48.738;9.616;2023-05-29T22:56:36;15.30;81.10
6863;DHT22;3470;48.738;9.616;2023-05-29T22:59:03;15.40;81.50
6863;DHT22;3470;48.738;9.616;2023-05-29T23:01:29;15.30;81.50
6863;DHT22;3470;48.738;9.616;2023-05-29T23:03:57;15.30;81.80
6863;DHT22;3470;48.738;9.616;2023-05-29T23:06:22;15.20;82.20
6863;DHT22;3470;48.738;9.616;2023-05-29T23:08:50;15.10;82.00
6863;DHT22;3470;48.738;9.616;2023-05-29T23:11:16;15.10;82.30
6863;DHT22;3470;48.738;9.616;2023-05-29T23:13:44;15.10;82.50
6863;DHT22;3470;48.738;9.616;2023-05-29T23:16:09;15.00;82.60
6863;DHT22;3470;48.738;9.616;2023-05-29T23:18:37;15.00;82.80
6863;DHT22;3470;48.738;9.616;2023-05-29T23:21:03;14.90;83.90
6863;DHT22;3470;48.738;9.616;2023-05-29T23:23:31;14.70;83.50
6863;DHT22;3470;48.738;9.616;2023-05-29T23:25:58;14.80;83.90
6863;DHT22;3470;48.738;9.616;2023-05-29T23:28:24;14.90;83.30
6863;DHT22;3470;48.738;9.616;2023-05-29T23:30:51;15.00;83.50
6863;DHT22;3470;48.738;9.616;2023-05-29T23:33:16;14.90;83.30
6863;DHT22;3470;48.738;9.616;2023-05-29T23:35:44;14.90;83.20
6863;DHT22;3470;48.738;9.616;2023-05-29T23:38:13;14.80;83.60
6863;DHT22;3470;48.738;9.616;2023-05-29T23:40:38;14.70;83.80
6863;DHT22;3470;48.738;9.616;2023-05-29T23:43:04;14.60;84.30
6863;DHT22;3470;48.738;9.616;2023-05-29T23:45:33;14.40;84.50
6863;DHT22;3470;48.738;9.616;2023-05-29T23:47:58;14.40;85.60
6863;DHT22;3470;48.738;9.616;2023-05-29T23:50:24;14.30;85.40
6863;DHT22;3470;48.738;9.616;2023-05-29T23:52:51;14.20;86.00
6863;DHT22;3470;48.738;9.616;2023-05-29T23:55:17;14.20;86.00
6863;DHT22;3470;48.738;9.616;2023-05-29T23:57:42;14.10;86.60
